createdAt,value
2019-01-13T00:02:21.923Z,4.4
2019-01-13T00:07:44.558Z,4.8
2019-01-13T00:13:08.413Z,4.4
2019-01-13T00:18:45.565Z,4.5
2019-01-13T00:24:18.837Z,4.2
2019-01-13T00:29:41.761Z,4.5
2019-01-13T00:35:05.104Z,5.3
2019-01-13T00:40:37.698Z,5.1
2019-01-13T00:46:12.316Z,4.7
2019-01-13T00:51:46.475Z,5.3
2019-01-13T00:57:11.106Z,5.1
2019-01-13T01:02:46.042Z,4.9
2019-01-13T01:08:11.493Z,4.4
2019-01-13T01:13:35.650Z,5.1
2019-01-13T01:19:10.659Z,4.3
2019-01-13T01:24:44.087Z,4.9
2019-01-13T01:30:17.130Z,5.4
2019-01-13T01:35:42.593Z,5.3
2019-01-13T01:41:15.361Z,5.2
2019-01-13T01:46:48.808Z,5
2019-01-13T01:52:14.135Z,4.9
2019-01-13T01:57:38.777Z,5.9
2019-01-13T02:03:01.640Z,6.4
2019-01-13T02:08:24.317Z,5.4
2019-01-13T02:13:49.632Z,6.4
2019-01-13T02:19:25.663Z,6.6
2019-01-13T02:24:48.516Z,7.2
2019-01-13T02:30:12.690Z,7
2019-01-13T02:35:36.114Z,7.1
2019-01-13T02:40:58.794Z,7.7
2019-01-13T02:46:21.874Z,7.8
2019-01-13T02:51:56.419Z,7.7
2019-01-13T02:57:19.642Z,7.7
2019-01-13T03:02:44.735Z,7.8
2019-01-13T03:08:07.626Z,7.2
2019-01-13T03:13:42.749Z,6.5
2019-01-13T03:19:16.804Z,6.5
2019-01-13T03:24:39.435Z,6.7
2019-01-13T03:30:04.276Z,7.3
2019-01-13T03:35:38.489Z,7.4
2019-01-13T03:41:07.616Z,8.5
2019-01-13T03:46:42.847Z,8.8
2019-01-13T03:52:18.359Z,10.4
2019-01-13T03:57:42.409Z,11.5
2019-01-13T04:03:15.420Z,12.3
2019-01-13T04:08:53.206Z,12.2
2019-01-13T04:14:17.759Z,12.4
2019-01-13T04:19:51.975Z,11.6
2019-01-13T04:25:15.151Z,12.4
2019-01-13T04:30:39.621Z,12.7
2019-01-13T04:36:13.028Z,12.6
2019-01-13T04:41:37.641Z,12
2019-01-13T04:47:11.065Z,11.8
2019-01-13T04:52:34.675Z,12
2019-01-13T04:57:58.367Z,12.2
2019-01-13T05:03:32.026Z,11.2
2019-01-13T05:08:54.944Z,11.5
2019-01-13T05:14:19.572Z,11.2
2019-01-13T05:19:43.182Z,10.9
2019-01-13T05:25:06.393Z,11.8
2019-01-13T05:30:39.929Z,12
2019-01-13T05:36:13.113Z,12.3
2019-01-13T05:41:46.926Z,12.3
2019-01-13T05:47:09.899Z,12.8
2019-01-13T05:52:44.567Z,12.2
2019-01-13T05:58:17.953Z,13.3
2019-01-13T06:03:54.289Z,13.6
2019-01-13T06:09:26.211Z,13.3
2019-01-13T06:14:49.171Z,13.6
2019-01-13T06:20:21.841Z,14.7
2019-01-13T06:25:44.711Z,13.7
2019-01-13T06:31:20.666Z,13.5
2019-01-13T06:36:43.495Z,13.1
2019-01-13T06:42:16.476Z,11.6
2019-01-13T06:47:51.508Z,13.3
2019-01-13T06:53:27.453Z,12.1
2019-01-13T06:58:51.223Z,13.1
2019-01-13T07:04:13.981Z,11.6
2019-01-13T07:09:36.732Z,11.2
2019-01-13T07:14:59.472Z,11.7
2019-01-13T07:20:24.268Z,11.1
2019-01-13T07:25:48.363Z,10.7
2019-01-13T07:31:12.017Z,10.7
2019-01-13T07:36:35.094Z,8.9
2019-01-13T07:42:00.511Z,8.8
2019-01-13T07:47:23.244Z,8.5
2019-01-13T07:52:56.773Z,8.1
2019-01-13T07:58:32.099Z,8.2
2019-01-13T08:03:55.509Z,8
2019-01-13T08:09:20.577Z,7.5
2019-01-13T08:14:44.689Z,7.7
2019-01-13T08:20:08.231Z,8.3
2019-01-13T08:25:32.794Z,7.3
2019-01-13T08:30:55.764Z,7.4
2019-01-13T08:36:20.208Z,7.3
2019-01-13T08:41:52.279Z,6.9
2019-01-13T08:47:16.617Z,6.2
2019-01-13T08:52:49.628Z,6.5
2019-01-13T08:58:23.387Z,5.5
2019-01-13T09:03:59.302Z,4.9
2019-01-13T09:09:33.011Z,4.5
2019-01-13T09:15:06.227Z,4.1
2019-01-13T09:20:29.842Z,3.5
2019-01-13T09:26:04.392Z,3.6
2019-01-13T09:31:37.261Z,3
2019-01-13T09:37:00.657Z,2.7
2019-01-13T09:42:26.501Z,2.1
2019-01-13T09:47:51.543Z,2.3
2019-01-13T09:53:15.251Z,2.2
2019-01-13T09:58:38.028Z,2.2
2019-01-13T10:04:11.086Z,2.5
2019-01-13T10:09:42.667Z,2.4
2019-01-13T10:22:51.580Z,2.5
2019-01-13T10:28:15.903Z,2.5
2019-01-13T10:33:50.330Z,2.5
2019-01-13T10:39:12.672Z,2.3
2019-01-13T10:44:38.482Z,2.5
2019-01-13T10:50:14.114Z,3
2019-01-13T10:55:50.391Z,2.8
2019-01-13T11:01:23.603Z,2.7
2019-01-13T11:06:57.100Z,2.4
2019-01-13T11:12:19.736Z,2.8
2019-01-13T11:17:53.308Z,2.2
2019-01-13T11:23:18.475Z,2.3
2019-01-13T11:28:42.356Z,2.4
2019-01-13T11:34:07.631Z,2.4
2019-01-13T11:39:30.515Z,1.8
2019-01-13T11:44:53.359Z,1.9
2019-01-13T11:50:16.019Z,1.7
2019-01-13T11:55:38.899Z,1.4
2019-01-13T12:01:11.038Z,1.8
2019-01-13T12:06:35.056Z,1.5
2019-01-13T12:11:59.332Z,1.5
2019-01-13T12:17:23.801Z,1.2
2019-01-13T12:22:56.868Z,1.6
2019-01-13T12:28:20.402Z,1.2
2019-01-13T12:33:44.442Z,1.4
2019-01-13T12:39:18.669Z,1.2
2019-01-13T12:44:51.153Z,1.3
2019-01-13T12:50:14.959Z,1.4
2019-01-13T12:55:47.648Z,1.8
2019-01-13T13:01:10.637Z,1.5
2019-01-13T13:06:43.326Z,1.9
2019-01-13T13:12:07.012Z,1.6
2019-01-13T13:17:31.842Z,1.6
2019-01-13T13:22:54.566Z,1.9
2019-01-13T13:28:41.751Z,2
2019-01-13T13:34:27.899Z,2.3
2019-01-13T13:40:01.532Z,2.7
2019-01-13T13:45:54.570Z,2.7
2019-01-13T13:51:17.377Z,2.8
2019-01-13T13:56:50.941Z,2.7
2019-01-13T14:03:17.167Z,2.6
2019-01-13T14:09:15.958Z,3.2
2019-01-13T14:14:49.728Z,2.8
2019-01-13T14:20:23.662Z,2.9
2019-01-13T14:26:24.527Z,2.5
2019-01-13T14:31:48.138Z,2.8
2019-01-13T14:38:11.861Z,2.6
2019-01-13T14:44:38.469Z,2.9
2019-01-13T14:50:02.334Z,2.7
2019-01-13T14:56:01.665Z,2.7
2019-01-13T15:01:36.382Z,2.8
2019-01-13T15:07:10.039Z,2.3
2019-01-13T15:12:33.094Z,3.1
2019-01-13T15:17:56.360Z,3.4
2019-01-13T15:23:29.540Z,3
2019-01-13T15:29:27.749Z,3.8
2019-01-13T15:34:52.450Z,4.6
2019-01-13T15:40:25.094Z,5.4
2019-01-13T15:45:59.723Z,4.9
2019-01-13T15:51:33.653Z,5.2
2019-01-13T15:57:05.967Z,5.7
2019-01-13T16:02:37.831Z,5.5
2019-01-13T16:08:12.462Z,5
2019-01-13T16:13:36.348Z,4.9
2019-01-13T16:18:59.121Z,4.8
2019-01-13T16:24:31.934Z,4.6
2019-01-13T16:30:04.568Z,4.5
2019-01-13T16:35:38.177Z,4.6
2019-01-13T16:41:01.053Z,4.6
2019-01-13T16:46:58.549Z,3.4
2019-01-13T16:52:21.512Z,3.9
2019-01-13T16:58:38.901Z,3.8
2019-01-13T17:04:11.711Z,3.9
2019-01-13T17:09:45.994Z,3.6
2019-01-13T17:15:19.533Z,3.6
2019-01-13T17:20:52.428Z,3.4
2019-01-13T17:26:16.616Z,3.3
2019-01-13T17:31:50.517Z,3.5
2019-01-13T17:37:23.649Z,3.2
2019-01-13T17:42:46.445Z,3.9
2019-01-13T17:48:18.351Z,3.7
2019-01-13T17:53:51.067Z,3.6
2019-01-13T17:59:15.613Z,3
2019-01-13T18:04:50.371Z,3.4
2019-01-13T18:10:13.896Z,3.2
2019-01-13T18:15:47.161Z,3.6
2019-01-13T18:21:11.624Z,3.1
2019-01-13T18:26:43.467Z,2.8
2019-01-13T18:32:22.899Z,3.2
2019-01-13T18:37:55.039Z,2.7
2019-01-13T18:43:30.413Z,3.5
2019-01-13T18:49:03.401Z,3.5
2019-01-13T18:54:26.361Z,3.4
2019-01-13T18:59:59.622Z,3.5
2019-01-13T19:05:22.840Z,3.2
2019-01-13T19:10:46.210Z,2.9
2019-01-13T19:16:12.201Z,3.6
2019-01-13T19:21:34.983Z,4.3
2019-01-13T19:26:58.177Z,2.9
2019-01-13T19:32:21.021Z,2.9
2019-01-13T19:37:43.777Z,2.3
2019-01-13T19:43:10.060Z,1.5
2019-01-13T19:48:32.899Z,2
2019-01-13T19:53:55.597Z,1.6
2019-01-13T19:59:28.050Z,3
2019-01-13T20:05:00.449Z,2.9
2019-01-13T20:11:00.736Z,3
2019-01-13T20:16:24.410Z,3.3
2019-01-13T20:21:49.673Z,3.9
2019-01-13T20:27:48.458Z,3.3
2019-01-13T20:33:23.212Z,3.5
2019-01-13T20:38:48.000Z,3.7
2019-01-13T20:44:20.563Z,3
2019-01-13T20:49:45.103Z,3.3
2019-01-13T20:55:17.677Z,2.9
2019-01-13T21:00:41.648Z,2.6
2019-01-13T21:06:13.915Z,2.2
2019-01-13T21:11:47.065Z,2.9
2019-01-13T21:17:20.553Z,3.2
2019-01-13T21:22:52.945Z,3.3
2019-01-13T21:28:26.058Z,3.4
2019-01-13T21:33:50.095Z,3.2
2019-01-13T21:39:15.785Z,2.6
2019-01-13T21:44:48.562Z,2.9
2019-01-13T21:50:22.705Z,3.2
2019-01-13T21:55:57.210Z,3.2
2019-01-13T22:01:35.341Z,3.2
2019-01-13T22:06:56.888Z,3.2
2019-01-13T22:12:29.798Z,2.9
2019-01-13T22:17:53.314Z,2.9
2019-01-13T22:23:17.265Z,3.6
2019-01-13T22:28:40.617Z,2.6
2019-01-13T22:34:12.769Z,3.4
2019-01-13T22:39:46.093Z,3.7
2019-01-13T22:45:08.942Z,2.8
2019-01-13T22:50:32.237Z,3.8
2019-01-13T22:56:06.133Z,3.2
2019-01-13T23:01:30.675Z,3.9
2019-01-13T23:06:54.485Z,3.8
2019-01-13T23:12:28.897Z,3.2
2019-01-13T23:17:51.592Z,3.6
2019-01-13T23:23:24.922Z,2.7
2019-01-13T23:28:51.953Z,3.5
2019-01-13T23:34:16.437Z,2.6
2019-01-13T23:39:40.929Z,3.1
2019-01-13T23:45:05.178Z,3.5
2019-01-13T23:50:39.958Z,3.7
2019-01-13T23:56:01.761Z,2.9
